createdAt,value
2022-11-29T00:02:19.944Z,103039.28
2022-11-29T00:04:47.955Z,103038.44
2022-11-29T00:07:15.834Z,103035.84
2022-11-29T00:09:45.063Z,103043.63
2022-11-29T00:12:15.895Z,103036.69
2022-11-29T00:14:44.054Z,103041.88
2022-11-29T00:17:12.134Z,103038.44
2022-11-29T00:19:40.217Z,103035.84
2022-11-29T00:22:08.081Z,103036.72
2022-11-29T00:24:36.737Z,103041.03
2022-11-29T00:27:05.972Z,103045.34
2022-11-29T00:29:33.844Z,103038.47
2022-11-29T00:32:01.687Z,103043.63
2022-11-29T00:34:29.556Z,103043.66
2022-11-29T00:36:57.498Z,103038.47
2022-11-29T00:39:25.519Z,103037.59
2022-11-29T00:41:53.450Z,103031.56
2022-11-29T00:44:22.941Z,103034.13
2022-11-29T00:46:50.763Z,103033.31
2022-11-29T00:49:19.040Z,103028.13
2022-11-29T00:51:46.930Z,103028.13
2022-11-29T00:54:14.800Z,103033.31
2022-11-29T00:56:42.761Z,103036.72
2022-11-29T00:59:10.734Z,103033.31
2022-11-29T01:01:40.182Z,103030.72
2022-11-29T01:04:08.209Z,103031.63
2022-11-29T01:06:36.269Z,103034.19
2022-11-29T01:09:04.347Z,103039.38
2022-11-29T01:11:32.164Z,103029.03
2022-11-29T01:14:02.091Z,103037.66
2022-11-29T01:16:31.690Z,103027.31
2022-11-29T01:19:01.645Z,103030.78
2022-11-29T01:21:29.744Z,103025.63
2022-11-29T01:23:58.077Z,103024.75
2022-11-29T01:26:27.925Z,103023.91
2022-11-29T01:28:57.253Z,103030.78
2022-11-29T01:31:27.020Z,103026.50
2022-11-29T01:33:55.755Z,103031.66
2022-11-29T01:36:26.026Z,103024.75
2022-11-29T01:38:53.672Z,103029.94
2022-11-29T01:41:23.492Z,103029.09
2022-11-29T01:44:03.843Z,103029.09
2022-11-29T01:46:33.936Z,103029.94
2022-11-29T01:49:06.424Z,103023.91
2022-11-29T01:51:37.295Z,103032.53
2022-11-29T01:54:06.790Z,103017.00
2022-11-29T01:56:35.901Z,103017.88
2022-11-29T01:59:07.633Z,103017.00
2022-11-29T02:01:36.930Z,103021.31
2022-11-29T02:04:06.025Z,103022.16
2022-11-29T02:06:36.023Z,103015.28
2022-11-29T02:09:04.680Z,103025.63
2022-11-29T02:12:00.033Z,103017.88
2022-11-29T02:14:41.527Z,103019.59
2022-11-29T02:17:20.421Z,103016.19
2022-11-29T02:20:07.013Z,103016.16
2022-11-29T02:22:42.608Z,103021.34
2022-11-29T02:25:25.482Z,103020.47
2022-11-29T02:28:30.304Z,103029.13
2022-11-29T02:31:24.861Z,103027.38
2022-11-29T02:34:11.522Z,103024.78
2022-11-29T02:36:58.337Z,103023.06
2022-11-29T02:39:54.057Z,103026.53
2022-11-29T02:42:56.787Z,103031.72
2022-11-29T02:45:59.713Z,103033.44
2022-11-29T02:48:42.563Z,103028.25
2022-11-29T02:51:16.938Z,103032.56
2022-11-29T02:53:52.549Z,103031.72
2022-11-29T02:56:26.501Z,103037.75
2022-11-29T02:59:03.576Z,103036.91
2022-11-29T03:01:41.053Z,103040.34
2022-11-29T03:04:17.757Z,103036.91
2022-11-29T03:06:55.951Z,103041.22
2022-11-29T03:09:36.574Z,103030.00
2022-11-29T03:12:17.346Z,103035.19
2022-11-29T03:14:56.797Z,103037.78
2022-11-29T03:17:32.940Z,103036.06
2022-11-29T03:20:27.378Z,103028.31
2022-11-29T03:23:11.096Z,103036.06
2022-11-29T03:25:43.442Z,103036.06
2022-11-29T03:28:17.766Z,103030.91
2022-11-29T03:30:51.973Z,103033.47
2022-11-29T03:33:25.870Z,103028.31
2022-11-29T03:36:02.005Z,103025.72
2022-11-29T03:38:36.073Z,103027.44
2022-11-29T03:41:14.071Z,103024.00
2022-11-29T03:43:47.211Z,103031.78
2022-11-29T03:46:22.433Z,103024.03
2022-11-29T03:48:55.293Z,103030.03
2022-11-29T03:51:39.706Z,103031.78
2022-11-29T03:54:12.726Z,103027.47
2022-11-29T03:56:42.180Z,103030.91
2022-11-29T03:59:25.809Z,103031.78
2022-11-29T04:02:29.249Z,103031.78
2022-11-29T04:05:24.396Z,103034.38
2022-11-29T04:08:07.057Z,103027.47
2022-11-29T04:11:06.879Z,103036.97
2022-11-29T04:13:51.560Z,103033.50
2022-11-29T04:16:51.786Z,103034.38
2022-11-29T04:19:35.269Z,103034.38
2022-11-29T04:22:28.944Z,103039.56
2022-11-29T04:25:36.801Z,103036.97
2022-11-29T04:28:26.130Z,103044.72
2022-11-29T04:31:02.645Z,103032.63
2022-11-29T04:34:07.039Z,103040.38
2022-11-29T04:36:49.899Z,103044.72
2022-11-29T04:39:41.328Z,103038.66
2022-11-29T04:42:36.690Z,103044.72
2022-11-29T04:45:40.546Z,103042.97
2022-11-29T04:48:26.297Z,103044.72
2022-11-29T04:51:04.117Z,103042.13
2022-11-29T04:53:47.920Z,103049.00
2022-11-29T04:56:22.805Z,103045.53
2022-11-29T04:59:00.204Z,103042.97
2022-11-29T05:01:37.224Z,103043.81
2022-11-29T05:04:15.521Z,103054.19
2022-11-29T05:06:57.390Z,103052.47
2022-11-29T05:09:32.621Z,103052.47
2022-11-29T05:12:06.089Z,103049.00
2022-11-29T05:14:46.011Z,103059.34
2022-11-29T05:17:34.644Z,103049.00
2022-11-29T05:20:16.175Z,103057.63
2022-11-29T05:22:54.898Z,103053.31
2022-11-29T05:25:35.657Z,103059.34
2022-11-29T05:28:10.961Z,103066.22
2022-11-29T05:31:08.494Z,103059.34
2022-11-29T05:34:10.514Z,103068.81
2022-11-29T05:36:43.604Z,103063.63
2022-11-29T05:39:32.151Z,103063.63
2022-11-29T05:42:16.552Z,103076.56
2022-11-29T05:44:48.616Z,103067.09
2022-11-29T05:47:26.869Z,103070.56
2022-11-29T05:50:05.241Z,103068.81
2022-11-29T05:52:45.125Z,103075.72
2022-11-29T05:55:26.159Z,103073.13
2022-11-29T05:57:58.561Z,103072.25
2022-11-29T06:00:30.507Z,103074.84
2022-11-29T06:03:05.496Z,103067.94
2022-11-29T06:05:38.434Z,103080.88
2022-11-29T06:08:12.201Z,103080.88
2022-11-29T06:10:42.753Z,103078.28
2022-11-29T06:13:22.049Z,103079.13
2022-11-29T06:16:14.205Z,103074.81
2022-11-29T06:19:05.785Z,103079.13
2022-11-29T06:21:45.267Z,103082.59
2022-11-29T06:24:36.081Z,103076.53
2022-11-29T06:27:36.482Z,103085.16
2022-11-29T06:30:09.862Z,103080.00
2022-11-29T06:32:47.584Z,103086.03
2022-11-29T06:35:40.448Z,103088.63
2022-11-29T06:38:17.100Z,103093.81
2022-11-29T06:40:45.397Z,103092.06
2022-11-29T06:43:13.805Z,103096.38
2022-11-29T06:45:47.896Z,103088.63
2022-11-29T06:48:22.755Z,103092.91
2022-11-29T06:51:00.850Z,103093.81
2022-11-29T06:53:41.073Z,103086.88
2022-11-29T06:56:15.194Z,103090.34
2022-11-29T06:58:52.408Z,103096.38
2022-11-29T07:01:30.240Z,103098.97
2022-11-29T07:04:20.909Z,103104.13
2022-11-29T07:06:49.290Z,103103.25
2022-11-29T07:09:22.950Z,103105.84
2022-11-29T07:11:51.334Z,103113.59
2022-11-29T07:14:19.644Z,103111.88
2022-11-29T07:16:57.801Z,103117.06
2022-11-29T07:19:40.120Z,103116.19
2022-11-29T07:22:22.493Z,103118.78
2022-11-29T07:25:01.396Z,103119.66
2022-11-29T07:27:38.645Z,103117.91
2022-11-29T07:30:13.766Z,103116.19
2022-11-29T07:32:58.775Z,103117.91
2022-11-29T07:35:36.768Z,103130.00
2022-11-29T07:38:13.929Z,103124.81
2022-11-29T07:40:51.308Z,103126.53
2022-11-29T07:43:28.170Z,103123.94
2022-11-29T07:45:57.299Z,103136.00
2022-11-29T07:48:25.128Z,103125.66
2022-11-29T07:50:52.943Z,103129.09
2022-11-29T07:53:22.925Z,103128.22
2022-11-29T07:55:52.271Z,103125.66
2022-11-29T07:58:20.621Z,103137.75
2022-11-29T08:00:48.568Z,103133.41
2022-11-29T08:03:16.401Z,103127.38
2022-11-29T08:05:47.517Z,103129.97
2022-11-29T08:08:15.615Z,103123.03
2022-11-29T08:10:43.480Z,103117.03
2022-11-29T08:13:12.743Z,103125.63
2022-11-29T08:15:45.277Z,103121.31
2022-11-29T08:20:25.827Z,103128.19
2022-11-29T08:22:57.337Z,103129.94
2022-11-29T08:25:25.471Z,103133.38
2022-11-29T08:27:54.577Z,103123.00
2022-11-29T08:30:23.366Z,103132.50
2022-11-29T08:32:51.879Z,103133.38
2022-11-29T08:35:20.830Z,103137.66
2022-11-29T08:37:51.161Z,103129.88
2022-11-29T08:40:19.313Z,103132.47
2022-11-29T08:42:47.155Z,103133.34
2022-11-29T08:45:15.037Z,103129.88
2022-11-29T08:47:43.037Z,103134.22
2022-11-29T08:50:14.637Z,103132.47
2022-11-29T08:53:01.784Z,103134.22
2022-11-29T08:55:33.906Z,103135.06
2022-11-29T08:58:04.335Z,103131.59
2022-11-29T09:00:32.920Z,103133.31
2022-11-29T09:03:16.346Z,103138.50
2022-11-29T09:05:44.602Z,103145.38
2022-11-29T09:08:12.427Z,103137.63
2022-11-29T09:12:53.045Z,103143.69
2022-11-29T09:15:20.873Z,103144.56
2022-11-29T09:17:48.730Z,103144.56
2022-11-29T09:20:16.669Z,103137.63
2022-11-29T09:22:44.469Z,103134.19
2022-11-29T09:25:12.373Z,103134.19
2022-11-29T09:27:41.763Z,103134.19
2022-11-29T09:30:12.438Z,103135.94
2022-11-29T09:32:40.247Z,103136.81
2022-11-29T09:35:09.045Z,103128.16
2022-11-29T09:37:37.225Z,103133.34
2022-11-29T09:40:05.592Z,103135.06
2022-11-29T09:42:47.109Z,103129.88
2022-11-29T09:45:21.144Z,103127.28
2022-11-29T09:48:07.223Z,103127.28
2022-11-29T09:50:37.240Z,103135.03
2022-11-29T09:53:23.946Z,103134.19
2022-11-29T09:56:04.421Z,103129.84
2022-11-29T09:58:40.651Z,103135.00
2022-11-29T10:01:14.733Z,103132.44
2022-11-29T10:03:46.814Z,103135.00
2022-11-29T10:06:22.301Z,103132.41
2022-11-29T10:08:57.208Z,103136.75
2022-11-29T10:11:31.008Z,103137.59
2022-11-29T10:14:04.030Z,103139.34
2022-11-29T10:16:42.685Z,103138.44
2022-11-29T10:19:19.521Z,103140.16
2022-11-29T10:21:57.229Z,103143.63
2022-11-29T10:24:28.046Z,103146.22
2022-11-29T10:26:56.094Z,103141.03
2022-11-29T10:29:24.641Z,103145.34
2022-11-29T10:31:56.777Z,103144.50
2022-11-29T10:34:26.430Z,103149.69
2022-11-29T10:36:59.516Z,103141.91
2022-11-29T10:39:35.721Z,103140.16
2022-11-29T10:42:07.373Z,103147.91
2022-11-29T10:44:37.888Z,103144.47
2022-11-29T10:47:10.955Z,103150.50
2022-11-29T10:49:40.278Z,103145.31
2022-11-29T10:52:19.440Z,103147.88
2022-11-29T10:54:49.307Z,103152.22
2022-11-29T10:57:19.267Z,103148.75
2022-11-29T11:00:01.352Z,103142.69
2022-11-29T11:02:31.669Z,103146.16
2022-11-29T11:05:00.043Z,103149.63
2022-11-29T11:07:33.144Z,103143.56
2022-11-29T11:10:01.686Z,103142.66
2022-11-29T11:12:32.304Z,103146.13
2022-11-29T11:15:16.800Z,103145.25
2022-11-29T11:17:59.548Z,103140.06
2022-11-29T11:20:30.256Z,103136.66
2022-11-29T11:23:01.112Z,103140.94
2022-11-29T11:25:31.380Z,103134.88
2022-11-29T11:28:11.657Z,103135.78
2022-11-29T11:30:39.526Z,103139.22
2022-11-29T11:33:10.491Z,103143.53
2022-11-29T11:35:38.325Z,103147.81
2022-11-29T11:38:06.139Z,103142.63
2022-11-29T11:40:34.661Z,103140.91
2022-11-29T11:43:03.637Z,103137.44
2022-11-29T11:45:35.091Z,103141.75
2022-11-29T11:48:06.149Z,103133.13
2022-11-29T11:50:41.911Z,103138.31
2022-11-29T11:53:22.424Z,103148.66
2022-11-29T11:55:57.164Z,103149.50
2022-11-29T11:58:27.498Z,103151.25
2022-11-29T12:01:05.239Z,103143.47
2022-11-29T12:03:49.628Z,103146.88
2022-11-29T12:06:32.844Z,103152.94
2022-11-29T12:09:06.836Z,103152.06
2022-11-29T12:11:42.266Z,103142.56
2022-11-29T12:14:19.015Z,103149.47
2022-11-29T12:16:50.054Z,103150.34
2022-11-29T12:19:24.079Z,103147.75
2022-11-29T12:22:00.770Z,103148.63
2022-11-29T12:24:34.746Z,103152.03
2022-11-29T12:27:06.390Z,103152.03
2022-11-29T12:29:35.681Z,103152.94
2022-11-29T12:32:15.769Z,103152.06
2022-11-29T12:35:01.762Z,103156.38
2022-11-29T12:37:40.348Z,103153.78
2022-11-29T12:40:18.487Z,103152.91
2022-11-29T12:42:56.102Z,103147.72
2022-11-29T12:45:46.039Z,103152.91
2022-11-29T12:48:28.403Z,103156.38
2022-11-29T12:51:03.380Z,103146.84
2022-11-29T12:53:52.478Z,103150.31
2022-11-29T12:56:28.914Z,103147.75
2022-11-29T12:59:14.469Z,103151.22
2022-11-29T13:02:02.349Z,103147.75
2022-11-29T13:04:40.641Z,103147.78
2022-11-29T13:07:17.129Z,103154.66
2022-11-29T13:10:00.099Z,103159.81
2022-11-29T13:12:36.633Z,103147.75
2022-11-29T13:15:08.227Z,103153.81
2022-11-29T13:17:44.395Z,103149.47
2022-11-29T13:20:24.755Z,103150.34
2022-11-29T13:22:57.421Z,103147.75
2022-11-29T13:25:31.875Z,103155.53
2022-11-29T13:28:03.142Z,103152.06
2022-11-29T13:30:31.188Z,103148.66
2022-11-29T13:33:04.736Z,103151.25
2022-11-29T13:35:39.690Z,103145.19
2022-11-29T13:38:15.935Z,103149.50
2022-11-29T13:40:56.561Z,103152.06
2022-11-29T13:43:31.230Z,103149.50
2022-11-29T13:46:07.168Z,103149.50
2022-11-29T13:48:38.364Z,103150.38
2022-11-29T13:51:32.882Z,103159.03
2022-11-29T13:54:03.623Z,103159.03
2022-11-29T13:56:46.366Z,103161.63
2022-11-29T13:59:19.595Z,103158.16
2022-11-29T14:01:50.387Z,103158.16
2022-11-29T14:04:30.043Z,103153.88
2022-11-29T14:07:07.353Z,103157.31
2022-11-29T14:09:41.161Z,103149.53
2022-11-29T14:12:28.925Z,103161.66
2022-11-29T14:15:01.616Z,103151.28
2022-11-29T14:17:36.741Z,103161.66
2022-11-29T14:20:37.094Z,103158.19
2022-11-29T14:23:15.142Z,103161.69
2022-11-29T14:25:52.419Z,103161.66
2022-11-29T14:28:33.501Z,103159.09
2022-11-29T14:31:02.915Z,103160.78
2022-11-29T14:33:51.150Z,103159.97
2022-11-29T14:36:46.228Z,103163.41
2022-11-29T14:39:27.293Z,103164.28
2022-11-29T14:42:04.929Z,103166.00
2022-11-29T14:44:35.466Z,103163.41
2022-11-29T14:47:06.337Z,103160.81
2022-11-29T14:49:41.535Z,103164.28
2022-11-29T14:52:18.474Z,103160.81
2022-11-29T14:54:56.775Z,103162.56
2022-11-29T14:58:05.968Z,103155.63
2022-11-29T15:00:53.010Z,103154.81
2022-11-29T15:03:26.661Z,103159.13
2022-11-29T15:05:59.426Z,103162.59
2022-11-29T15:08:34.972Z,103161.72
2022-11-29T15:11:07.964Z,103160.84
2022-11-29T15:13:38.390Z,103160.84
2022-11-29T15:16:22.115Z,103161.75
2022-11-29T15:19:07.049Z,103166.06
2022-11-29T15:21:43.487Z,103164.34
2022-11-29T15:24:13.443Z,103160.91
2022-11-29T15:26:56.383Z,103160.91
2022-11-29T15:29:24.701Z,103167.84
2022-11-29T15:31:56.788Z,103173.88
2022-11-29T15:34:36.130Z,103167.88
2022-11-29T15:37:04.183Z,103162.69
2022-11-29T15:39:33.985Z,103171.31
2022-11-29T15:42:03.976Z,103160.94
2022-11-29T15:44:33.225Z,103154.94
2022-11-29T15:47:22.604Z,103163.59
2022-11-29T15:49:50.877Z,103161.03
2022-11-29T15:52:24.500Z,103153.28
2022-11-29T15:54:56.372Z,103161.06
2022-11-29T15:57:27.255Z,103161.91
2022-11-29T15:59:57.011Z,103164.50
2022-11-29T16:02:29.328Z,103163.66
2022-11-29T16:05:03.477Z,103163.66
2022-11-29T16:07:34.287Z,103165.38
2022-11-29T16:10:06.077Z,103168.84
2022-11-29T16:12:33.894Z,103165.38
2022-11-29T16:15:02.696Z,103170.56
2022-11-29T16:17:34.771Z,103165.38
2022-11-29T16:20:23.405Z,103167.09
2022-11-29T16:23:05.334Z,103177.44
2022-11-29T16:25:37.580Z,103170.56
2022-11-29T16:28:06.509Z,103173.16
2022-11-29T16:30:34.486Z,103176.63
2022-11-29T16:33:05.990Z,103175.75
2022-11-29T16:35:34.951Z,103176.63
2022-11-29T16:38:05.219Z,103179.19
2022-11-29T16:40:33.625Z,103174.88
2022-11-29T16:43:19.297Z,103177.50
2022-11-29T16:45:47.223Z,103180.91
2022-11-29T16:48:30.430Z,103176.63
2022-11-29T16:51:23.749Z,103180.09
2022-11-29T16:53:52.673Z,103186.09
2022-11-29T16:56:23.795Z,103189.56
2022-11-29T16:59:24.668Z,103189.56
2022-11-29T17:01:42.748Z,103189.56
2022-11-29T17:04:12.027Z,103191.25
2022-11-29T17:06:51.833Z,103182.66
2022-11-29T17:09:24.037Z,103183.50
2022-11-29T17:11:52.006Z,103189.56
2022-11-29T17:14:19.836Z,103188.69
2022-11-29T17:16:49.315Z,103189.56
2022-11-29T17:19:19.499Z,103190.44
2022-11-29T17:21:47.736Z,103186.97
2022-11-29T17:24:18.361Z,103186.09
2022-11-29T17:26:46.956Z,103185.22
2022-11-29T17:29:16.362Z,103186.09
2022-11-29T17:31:45.234Z,103178.34
2022-11-29T17:34:14.264Z,103178.34
2022-11-29T17:36:45.150Z,103175.75
2022-11-29T17:39:15.532Z,103174.03
2022-11-29T17:41:43.563Z,103180.91
2022-11-29T17:44:11.372Z,103177.50
2022-11-29T17:46:39.577Z,103177.50
2022-11-29T17:49:09.914Z,103181.78
2022-11-29T17:51:55.456Z,103181.78
2022-11-29T17:54:24.744Z,103186.09
2022-11-29T17:56:52.685Z,103184.38
2022-11-29T17:59:20.599Z,103184.38
2022-11-29T18:01:48.536Z,103191.25
2022-11-29T18:04:16.466Z,103191.25
2022-11-29T18:06:49.438Z,103194.72
2022-11-29T18:09:18.559Z,103188.69
2022-11-29T18:11:50.295Z,103191.25
2022-11-29T18:14:20.591Z,103194.72
2022-11-29T18:16:48.577Z,103192.97
2022-11-29T18:19:19.046Z,103197.31
2022-11-29T18:21:47.086Z,103197.31
2022-11-29T18:24:15.278Z,103198.16
2022-11-29T18:26:43.463Z,103198.16
2022-11-29T18:29:12.867Z,103195.56
2022-11-29T18:31:42.506Z,103197.31
2022-11-29T18:34:12.956Z,103197.31
2022-11-29T18:36:43.464Z,103195.56
2022-11-29T18:39:13.978Z,103199.00
2022-11-29T18:41:43.726Z,103204.19
2022-11-29T18:44:15.053Z,103201.59
2022-11-29T18:46:44.238Z,103203.31
2022-11-29T18:49:13.869Z,103204.19
2022-11-29T18:51:44.806Z,103200.72
2022-11-29T18:54:14.109Z,103203.31
2022-11-29T18:56:43.145Z,103199.88
2022-11-29T18:59:16.505Z,103202.47
2022-11-29T19:01:45.902Z,103205.03
2022-11-29T19:04:15.449Z,103203.31
2022-11-29T19:06:44.114Z,103204.19
2022-11-29T19:09:15.045Z,103211.94
2022-11-29T19:11:42.981Z,103211.06
2022-11-29T19:14:13.426Z,103213.66
2022-11-29T19:16:43.838Z,103211.94
2022-11-29T19:19:11.704Z,103212.81
2022-11-29T19:21:40.353Z,103215.41
2022-11-29T19:24:13.861Z,103216.25
2022-11-29T19:26:44.378Z,103214.53
2022-11-29T19:29:14.789Z,103217.97
2022-11-29T19:31:42.757Z,103222.28
2022-11-29T19:34:11.020Z,103220.56
2022-11-29T19:36:42.778Z,103220.59
2022-11-29T19:39:12.454Z,103218.00
2022-11-29T19:41:40.342Z,103217.13
2022-11-29T19:44:09.183Z,103217.13
2022-11-29T19:46:41.244Z,103211.06
2022-11-29T19:49:09.844Z,103218.84
2022-11-29T19:51:38.095Z,103213.66
2022-11-29T19:54:08.328Z,103218.00
2022-11-29T19:56:35.975Z,103215.41
2022-11-29T19:59:06.105Z,103209.34
2022-11-29T20:01:40.652Z,103212.81
2022-11-29T20:04:12.266Z,103216.25
2022-11-29T20:06:42.177Z,103218.84
2022-11-29T20:09:10.157Z,103215.41
2022-11-29T20:11:40.714Z,103218.84
2022-11-29T20:14:09.234Z,103219.69
2022-11-29T20:16:39.134Z,103224.88
2022-11-29T20:19:12.176Z,103220.56
2022-11-29T20:21:43.407Z,103225.75
2022-11-29T20:24:12.925Z,103223.16
2022-11-29T20:26:41.922Z,103224.00
2022-11-29T20:29:10.344Z,103235.22
2022-11-29T20:31:44.360Z,103236.09
2022-11-29T20:34:17.317Z,103225.75
2022-11-29T20:37:00.698Z,103230.03
2022-11-29T20:39:35.828Z,103232.63
2022-11-29T20:42:32.411Z,103234.34
2022-11-29T20:45:02.002Z,103236.09
2022-11-29T20:47:34.756Z,103232.63
2022-11-29T20:50:04.407Z,103236.09
2022-11-29T20:52:39.920Z,103229.16
2022-11-29T20:55:08.294Z,103233.50
2022-11-29T20:57:38.275Z,103241.25
2022-11-29T21:00:07.257Z,103236.94
2022-11-29T21:02:35.109Z,103237.78
2022-11-29T21:05:05.046Z,103244.69
2022-11-29T21:07:33.308Z,103236.09
2022-11-29T21:10:01.970Z,103252.44
2022-11-29T21:12:30.810Z,103248.16
2022-11-29T21:14:59.223Z,103244.69
2022-11-29T21:17:33.182Z,103242.97
2022-11-29T21:20:02.150Z,103242.97
2022-11-29T21:22:39.816Z,103242.97
2022-11-29T21:25:16.225Z,103252.44
2022-11-29T21:27:44.596Z,103245.56
2022-11-29T21:30:18.441Z,103249.03
2022-11-29T21:32:47.094Z,103247.28
2022-11-29T21:35:15.411Z,103247.28
2022-11-29T21:37:45.286Z,103243.84
2022-11-29T21:40:14.814Z,103245.56
2022-11-29T21:42:42.676Z,103247.28
2022-11-29T21:45:15.115Z,103249.03
2022-11-29T21:47:43.932Z,103248.13
2022-11-29T21:50:13.045Z,103249.00
2022-11-29T21:52:40.945Z,103252.44
2022-11-29T21:55:10.617Z,103257.63
2022-11-29T21:57:39.080Z,103249.84
2022-11-29T22:00:08.456Z,103251.59
2022-11-29T22:02:36.456Z,103250.72
2022-11-29T22:05:04.449Z,103254.19
2022-11-29T22:07:32.300Z,103249.00
2022-11-29T22:10:10.048Z,103252.44
2022-11-29T22:12:51.426Z,103253.31
2022-11-29T22:15:24.516Z,103254.19
2022-11-29T22:17:52.783Z,103249.84
2022-11-29T22:20:20.939Z,103256.78
2022-11-29T22:22:49.035Z,103255.91
2022-11-29T22:25:17.199Z,103252.44
2022-11-29T22:27:46.582Z,103249.00
2022-11-29T22:30:14.669Z,103250.72
2022-11-29T22:32:42.553Z,103242.94
2022-11-29T22:35:10.645Z,103255.00
2022-11-29T22:37:38.574Z,103254.19
2022-11-29T22:40:08.074Z,103254.13
2022-11-29T22:42:35.875Z,103256.72
2022-11-29T22:45:05.759Z,103252.44
2022-11-29T22:47:36.417Z,103254.13
2022-11-29T22:50:04.254Z,103257.59
2022-11-29T22:52:32.097Z,103242.06
2022-11-29T22:55:04.416Z,103254.13
2022-11-29T22:57:32.936Z,103252.44
2022-11-29T23:00:00.752Z,103252.44
2022-11-29T23:02:30.001Z,103261.91
2022-11-29T23:04:57.840Z,103251.53
2022-11-29T23:07:25.939Z,103253.28
2022-11-29T23:09:55.753Z,103251.53
2022-11-29T23:12:23.627Z,103244.66
2022-11-29T23:14:56.089Z,103245.53
2022-11-29T23:17:24.556Z,103246.34
2022-11-29T23:19:53.750Z,103248.09
2022-11-29T23:22:21.575Z,103235.16
2022-11-29T23:24:49.442Z,103244.63
2022-11-29T23:27:17.251Z,103241.16
2022-11-29T23:29:45.065Z,103240.31
2022-11-29T23:32:12.975Z,103237.72
2022-11-29T23:34:40.771Z,103237.72
2022-11-29T23:37:09.964Z,103244.63
2022-11-29T23:39:38.087Z,103240.31
2022-11-29T23:42:06.262Z,103240.31
2022-11-29T23:44:34.069Z,103242.03
2022-11-29T23:47:01.950Z,103242.91
2022-11-29T23:49:29.762Z,103243.75
2022-11-29T23:51:57.791Z,103246.34
2022-11-29T23:54:27.000Z,103248.09
2022-11-29T23:56:54.912Z,103244.63
2022-11-29T23:59:22.730Z,103251.50
